This is the latest recevied weather packets stored in our database for station/object LEAS. If no packets are shown the sender has not sent any weather packets the latest 10 day(s).
| Time | Temp. | Humidity | Pressure | Rain* | Wind** | Luminosity | Snow |
|---|---|---|---|---|---|---|---|
| 1787859903 | 16.11° C | 93% | 1012 hPa | - | - | - | - |
| 1787859003 | 16.11° C | 93% | 1012 hPa | - | - | - | - |
| 1787857202 | 16.11° C | 93% | 1011 hPa | - | - | - | - |
| 1787855404 | 16.11° C | 93% | 1011 hPa | - | - | - | - |
| 1787851803 | 16.11° C | 93% | 1011 hPa | - | - | - | - |
| 1787850003 | 16.11° C | 93% | 1011 hPa | - | - | - | - |
| 1787849103 | 16.11° C | 93% | 1011 hPa | - | - | - | - |
| 1787847303 | 17.78° C | 82% | 1010 hPa | - | - | - | - |
| 1787846404 | 17.22° C | 93% | 1010 hPa | - | - | - | - |
| 1787843703 | 17.22° C | 93% | 1010 hPa | - | - | - | - |
| 1787842803 | 16.11° C | 93% | 1009 hPa | - | - | - | - |
| 1787841003 | 15° C | 100% | 1009 hPa | - | - | - | - |
| 1787839203 | 15° C | 93% | 1010 hPa | - | - | - | - |
| 1787837403 | 17.22° C | 93% | 1009 hPa | - | - | - | - |
| 1787835604 | 17.22° C | 93% | 1008 hPa | - | - | - | - |
| 1787834704 | 17.22° C | 93% | 1008 hPa | - | - | - | - |
| 1787833803 | 17.22° C | 93% | 1009 hPa | - | - | - | - |
| 1787832903 | 17.22° C | 93% | 1009 hPa | - | - | - | - |
| 1787831103 | 17.78° C | 82% | 1009 hPa | - | - | - | - |
| 1787830203 | 21.11° C | 68% | 1009 hPa | - | - | - | - |
| 1787828403 | 21.11° C | 68% | 1009 hPa | - | - | - | - |
| 1787827503 | 21.11° C | 68% | 1009 hPa | - | - | - | - |
| 1787825702 | 20° C | 77% | 1009 hPa | - | - | - | - |
| 1787824804 | 17.78° C | 82% | 1009 hPa | - | - | - | - |
| 1787823904 | 17.78° C | 82% | 1009 hPa | - | - | - | - |
* Rain since midnight (hover to see other rain measurements)
** Current wind speed in m/s (hover to see current wind gust speed)